Terminal Aerodrome Forecast
Issued by NWS

Home | Current Version | Previous Version | Text Only | Print | Product List | Glossary On
Versions: 1 2 3 4 5 6 7 8 9 10 11 12
000
FTUS46 KSGX 310500
TAFTRM
TAF
KTRM 310520Z 3106/0106 33012G20KT P6SM SCT200
     FM310700 33009KT P6SM SCT200
     FM311200 33007KT P6SM SCT200
     FM010300 33010KT P6SM SCT200=

USA.gov is the U.S. government's official web portal to all federal, state and local government web resources and services.